Time;durP1;ratioP1;P1;durP2;ratioP2;P2;SDS_P1;SDS_P2;PMS_P1;PMS_P2;Temp;Humidity;BMP_temperature;BMP_pressure;BME280_temperature;BME280_humidity;BME280_pressure;Samples;Min_cycle;Max_cycle;Signal;HPM_P1;HPM_P2
2021/11/22 00:02:06;;;;;;;0.20;0.20;;;;;;;2.37;100.00;101203.44;5064549;28;20041;-79
2021/11/22 00:04:35;;;;;;;0.25;0.25;;;;;;;2.24;100.00;101182.03;5063470;28;20079;-79
2021/11/22 00:07:03;;;;;;;0.20;0.20;;;;;;;2.33;100.00;101198.72;5066137;28;20416;-79
2021/11/22 00:09:38;;;;;;;0.20;0.20;;;;;;;2.26;100.00;101209.50;5070711;28;20397;-80
2021/11/22 00:12:07;;;;;;;0.20;0.20;;;;;;;2.26;100.00;101208.69;5064938;28;20048;-80
2021/11/22 00:14:40;;;;;;;0.20;0.20;;;;;;;2.21;100.00;101212.00;5062271;28;20049;-80
2021/11/22 00:17:14;;;;;;;0.30;0.30;;;;;;;2.24;100.00;101213.41;5064062;28;20062;-80
2021/11/22 00:19:47;;;;;;;0.20;0.20;;;;;;;2.19;100.00;101219.44;5063563;28;20056;-80
2021/11/22 00:22:16;;;;;;;0.20;0.20;;;;;;;2.17;100.00;101213.47;5064227;28;20036;-78
2021/11/22 00:24:50;;;;;;;0.20;0.20;;;;;;;2.13;100.00;101220.28;5063960;28;20568;-79
2021/11/22 00:27:24;;;;;;;0.20;0.20;;;;;;;2.13;100.00;101228.34;5063411;28;20060;-79
2021/11/22 00:29:52;;;;;;;0.20;0.20;;;;;;;2.14;100.00;101214.69;5066885;28;20049;-79
2021/11/22 00:32:35;;;;;;;0.20;0.20;;;;;;;2.11;100.00;101241.13;5065898;28;20044;-80
2021/11/22 00:35:33;;;;;;;0.28;0.28;;;;;;;2.06;100.00;101247.16;5063861;28;20052;-79
2021/11/22 00:38:04;;;;;;;0.20;0.20;;;;;;;2.00;100.00;101246.13;5066489;28;20056;-78
2021/11/22 00:40:39;;;;;;;0.22;0.22;;;;;;;1.95;100.00;101253.97;5065758;28;20071;-79
2021/11/22 00:43:12;;;;;;;0.20;0.20;;;;;;;1.92;100.00;101249.03;5063277;28;20049;-79
2021/11/22 00:45:49;;;;;;;0.20;0.20;;;;;;;1.96;100.00;101257.47;5063175;28;20063;-79
2021/11/22 00:48:23;;;;;;;0.20;0.20;;;;;;;1.91;100.00;101251.91;5064224;28;20050;-78
2021/11/22 00:50:56;;;;;;;0.20;0.20;;;;;;;1.87;100.00;101264.91;5068035;28;20071;-79
2021/11/22 00:53:30;;;;;;;0.20;0.20;;;;;;;1.77;100.00;101261.81;5069753;28;20052;-78
2021/11/22 00:56:05;;;;;;;0.20;0.20;;;;;;;1.84;100.00;101259.97;5065596;28;20059;-79
2021/11/22 00:58:38;;;;;;;0.20;0.20;;;;;;;1.80;100.00;101275.66;5062889;28;20048;-79
2021/11/22 01:01:06;;;;;;;0.20;0.20;;;;;;;1.83;100.00;101279.78;5069296;28;20056;-79
2021/11/22 01:03:35;;;;;;;0.20;0.20;;;;;;;1.82;100.00;101276.28;5062030;28;20056;-79
2021/11/22 01:06:08;;;;;;;0.13;0.13;;;;;;;1.79;100.00;101284.72;5064227;28;20055;-79
2021/11/22 01:08:41;;;;;;;0.10;0.10;;;;;;;1.80;100.00;101288.25;5064868;28;20070;-79
2021/11/22 01:11:16;;;;;;;0.20;0.20;;;;;;;1.71;100.00;101295.66;5067350;28;20507;-79
2021/11/22 01:13:49;;;;;;;0.20;0.20;;;;;;;1.74;100.00;101294.44;5069432;28;20390;-78
2021/11/22 01:16:22;;;;;;;0.20;0.20;;;;;;;1.70;100.00;101310.13;5069971;28;20040;-78
2021/11/22 01:18:55;;;;;;;0.17;0.17;;;;;;;1.68;100.00;101313.00;5064405;28;20048;-79
2021/11/22 01:21:24;;;;;;;0.20;0.20;;;;;;;1.75;100.00;101315.69;5071689;28;20041;-79
2021/11/22 01:23:57;;;;;;;0.17;0.17;;;;;;;1.67;100.00;101323.94;5069740;28;20056;-79
2021/11/22 01:26:32;;;;;;;0.20;0.20;;;;;;;1.57;100.00;101337.75;5070222;28;20097;-79
2021/11/22 01:29:05;;;;;;;0.28;0.28;;;;;;;1.58;100.00;101346.66;5064940;28;20075;-78
2021/11/22 01:31:38;;;;;;;0.20;0.20;;;;;;;1.62;100.00;101339.84;5069457;28;20484;-80
2021/11/22 01:34:12;;;;;;;0.20;0.20;;;;;;;1.56;100.00;101349.53;5065493;28;20048;-78
2021/11/22 01:36:45;;;;;;;0.20;0.20;;;;;;;1.52;100.00;101348.28;5072605;28;20044;-79
2021/11/22 01:39:18;;;;;;;0.20;0.20;;;;;;;1.49;100.00;101352.19;5066205;28;20055;-79
2021/11/22 01:41:53;;;;;;;0.20;0.20;;;;;;;1.49;100.00;101352.19;5068857;28;20048;-79
2021/11/22 01:44:26;;;;;;;0.20;0.20;;;;;;;1.46;100.00;101363.31;5066498;28;20047;-79
2021/11/22 01:46:59;;;;;;;0.20;0.20;;;;;;;1.53;100.00;101372.22;5068430;28;20041;-80
2021/11/22 01:49:33;;;;;;;0.20;0.20;;;;;;;1.45;100.00;101368.88;5067437;28;20048;-79
2021/11/22 01:52:08;;;;;;;0.20;0.20;;;;;;;1.44;100.00;101370.75;5066886;28;20053;-79
2021/11/22 01:54:41;;;;;;;0.20;0.20;;;;;;;1.55;100.00;101389.94;5073173;28;20056;-79
2021/11/22 01:57:16;;;;;;;0.20;0.20;;;;;;;1.55;100.00;101388.13;5067804;28;20052;-80
2021/11/22 01:59:49;;;;;;;0.20;0.20;;;;;;;1.50;100.00;101388.69;5069733;28;20396;-79
2021/11/22 02:02:22;;;;;;;0.20;0.20;;;;;;;1.49;100.00;101397.81;5067123;28;20071;-80
2021/11/22 02:04:50;;;;;;;0.20;0.20;;;;;;;1.56;100.00;101399.66;5069121;28;20053;-79
2021/11/22 02:07:24;;;;;;;0.20;0.20;;;;;;;1.50;100.00;101404.78;5068915;28;20060;-80
2021/11/22 02:09:52;;;;;;;0.20;0.20;;;;;;;1.49;100.00;101399.63;5063679;28;20432;-79
2021/11/22 02:12:21;;;;;;;0.20;0.20;;;;;;;1.49;100.00;101402.31;5069173;28;20056;-79
2021/11/22 02:14:50;;;;;;;0.20;0.20;;;;;;;1.49;100.00;101400.47;5070114;28;20078;-78
2021/11/22 02:17:23;;;;;;;0.20;0.20;;;;;;;1.40;100.00;101407.03;5061528;28;20045;-79
2021/11/22 02:20:02;;;;;;;0.17;0.17;;;;;;;1.47;100.00;101413.25;5065880;28;20040;-79
2021/11/22 02:22:36;;;;;;;0.20;0.20;;;;;;;1.50;100.00;101409.34;5064602;28;20053;-79
2021/11/22 02:25:11;;;;;;;0.10;0.10;;;;;;;1.41;100.00;101415.91;5066276;28;20060;-79
2021/11/22 02:27:45;;;;;;;0.20;0.20;;;;;;;1.43;100.00;101425.41;5064032;28;20048;-79
2021/11/22 02:30:22;;;;;;;0.20;0.20;;;;;;;1.43;100.00;101430.78;5067832;28;20048;-79
2021/11/22 02:32:57;;;;;;;0.20;0.20;;;;;;;1.47;100.00;101431.22;5066919;28;20052;-78
2021/11/22 02:35:33;;;;;;;0.20;0.20;;;;;;;1.48;100.00;101439.06;5079817;28;20044;-79
2021/11/22 02:38:06;;;;;;;0.20;0.20;;;;;;;1.32;100.00;101426.00;5065320;28;20040;-79
2021/11/22 02:40:40;;;;;;;0.20;0.20;;;;;;;1.34;100.00;101438.19;5064850;28;20052;-79
2021/11/22 02:43:13;;;;;;;0.20;0.20;;;;;;;1.36;100.00;101444.16;5064592;28;20049;-79
2021/11/22 02:45:47;;;;;;;0.20;0.20;;;;;;;1.29;100.00;101442.50;5064927;28;20064;-79
2021/11/22 02:48:20;;;;;;;0.20;0.20;;;;;;;1.26;100.00;101449.06;5065952;28;20055;-79
2021/11/22 02:50:55;;;;;;;0.20;0.20;;;;;;;1.28;100.00;101452.38;5066192;28;20055;-79
2021/11/22 02:53:25;;;;;;;0.20;0.20;;;;;;;1.42;100.00;101458.63;5064144;28;20044;-79
2021/11/22 02:56:00;;;;;;;0.10;0.10;;;;;;;1.42;100.00;101450.56;5062671;28;20056;-78
2021/11/22 02:58:35;;;;;;;0.20;0.20;;;;;;;1.30;100.00;101453.00;5067113;28;20040;-78
2021/11/22 03:01:11;;;;;;;0.20;0.20;;;;;;;1.35;100.00;101463.97;5067503;28;20040;-79
2021/11/22 03:03:39;;;;;;;0.20;0.20;;;;;;;1.28;100.00;101465.78;5060840;28;20061;-79
2021/11/22 03:06:16;;;;;;;0.20;0.20;;;;;;;1.30;100.00;101462.94;5065085;28;20037;-79
2021/11/22 03:08:51;;;;;;;0.20;0.20;;;;;;;1.21;100.00;101464.91;5066618;28;20437;-79
2021/11/22 03:11:21;;;;;;;0.20;0.20;;;;;;;1.25;100.00;101465.38;5067605;28;20041;-80
2021/11/22 03:13:55;;;;;;;0.20;0.20;;;;;;;1.20;100.00;101471.31;5064545;28;20056;-80
2021/11/22 03:16:30;;;;;;;0.20;0.20;;;;;;;1.15;100.00;101473.78;5064474;28;20045;-80
2021/11/22 03:19:04;;;;;;;0.17;0.17;;;;;;;1.15;100.00;101471.09;5063872;28;20115;-79
2021/11/22 03:21:34;;;;;;;0.20;0.20;;;;;;;1.11;100.00;101478.69;5067423;28;20061;-79
2021/11/22 03:24:07;;;;;;;0.20;0.20;;;;;;;1.11;100.00;101481.38;5061244;28;20056;-78
2021/11/22 03:26:35;;;;;;;0.20;0.20;;;;;;;1.12;100.00;101482.19;5060805;28;20056;-79
2021/11/22 03:29:10;;;;;;;0.10;0.10;;;;;;;1.08;100.00;101481.78;5063537;28;20278;-78
2021/11/22 03:31:43;;;;;;;0.10;0.10;;;;;;;1.13;100.00;101491.88;5060748;28;20413;-79
2021/11/22 03:34:16;;;;;;;0.20;0.20;;;;;;;1.07;100.00;101487.34;5064733;28;20041;-79
2021/11/22 03:36:52;;;;;;;0.20;0.20;;;;;;;1.05;100.00;101492.03;5063601;28;20052;-80
2021/11/22 03:39:26;;;;;;;0.20;0.20;;;;;;;0.99;100.00;101490.97;5063941;28;20036;-79
2021/11/22 03:42:03;;;;;;;0.10;0.10;;;;;;;0.92;100.00;101488.25;5068320;28;20045;-79
2021/11/22 03:44:32;;;;;;;0.20;0.20;;;;;;;0.87;100.00;101484.50;5065052;28;20059;-79
2021/11/22 03:47:05;;;;;;;0.20;0.20;;;;;;;0.77;100.00;101499.06;5062895;28;20056;-79
2021/11/22 03:49:39;;;;;;;0.20;0.20;;;;;;;0.74;100.00;101499.47;5065900;28;20524;-79
2021/11/22 03:52:14;;;;;;;0.20;0.20;;;;;;;0.77;100.00;101501.75;5077052;28;20049;-79
2021/11/22 03:54:47;;;;;;;0.20;0.20;;;;;;;0.75;100.00;101501.13;5065555;28;20049;-79
2021/11/22 03:57:20;;;;;;;0.20;0.20;;;;;;;0.80;100.00;101503.22;5063776;28;20692;-79
2021/11/22 03:59:56;;;;;;;0.20;0.20;;;;;;;0.90;100.00;101502.88;5063986;28;20056;-78
2021/11/22 04:02:29;;;;;;;0.20;0.20;;;;;;;0.86;100.00;101497.09;5069596;28;20071;-79
2021/11/22 04:05:02;;;;;;;0.20;0.20;;;;;;;0.85;100.00;101506.97;5063210;28;20037;-78
2021/11/22 04:07:37;;;;;;;0.20;0.20;;;;;;;0.85;100.00;101506.13;5060608;28;20530;-79
2021/11/22 04:10:06;;;;;;;0.20;0.20;;;;;;;0.83;100.00;101511.69;5060211;28;20063;-79
2021/11/22 04:12:40;;;;;;;0.20;0.20;;;;;;;0.80;100.00;101508.56;5061305;28;20049;-79
2021/11/22 04:15:13;;;;;;;0.20;0.20;;;;;;;0.86;100.00;101515.84;5063856;28;20045;-79
2021/11/22 04:17:46;;;;;;;0.10;0.10;;;;;;;0.85;100.00;101506.97;5061084;28;20053;-79
2021/11/22 04:20:20;;;;;;;0.10;0.10;;;;;;;0.83;100.00;101514.38;5063344;28;20546;-78
2021/11/22 04:22:55;;;;;;;0.10;0.10;;;;;;;0.83;100.00;101508.19;5063526;28;20139;-78
2021/11/22 04:25:29;;;;;;;0.20;0.20;;;;;;;0.84;100.00;101523.22;5062664;28;20051;-78
2021/11/22 04:28:02;;;;;;;0.20;0.20;;;;;;;0.91;100.00;101524.13;5064842;28;20052;-79
2021/11/22 04:30:35;;;;;;;0.20;0.20;;;;;;;1.06;100.00;101526.69;5065225;28;20048;-78
2021/11/22 04:33:09;;;;;;;0.22;0.22;;;;;;;1.02;100.00;101530.78;5062274;28;20527;-79
2021/11/22 04:35:44;;;;;;;0.13;0.13;;;;;;;1.02;100.00;101536.16;5062398;28;20044;-78
2021/11/22 04:38:18;;;;;;;0.20;0.20;;;;;;;0.84;100.00;101532.13;5063900;28;20052;-78
2021/11/22 04:40:51;;;;;;;0.20;0.20;;;;;;;0.81;100.00;101537.03;5059694;28;20052;-79
2021/11/22 04:43:25;;;;;;;0.20;0.20;;;;;;;0.80;100.00;101543.41;5060439;28;20051;-78
2021/11/22 04:45:58;;;;;;;0.20;0.20;;;;;;;0.75;100.00;101556.56;5061244;28;20040;-79
2021/11/22 04:48:31;;;;;;;0.20;0.20;;;;;;;0.75;100.00;101559.25;5063412;28;20044;-79
2021/11/22 04:51:04;;;;;;;0.20;0.20;;;;;;;0.64;100.00;101555.22;5062711;28;20060;-80
2021/11/22 04:53:34;;;;;;;0.10;0.10;;;;;;;0.65;100.00;101567.63;5060180;28;20412;-79
2021/11/22 04:56:03;;;;;;;0.20;0.20;;;;;;;0.60;100.00;101575.38;5058155;28;20048;-79
2021/11/22 04:58:36;;;;;;;0.20;0.20;;;;;;;0.54;100.00;101581.50;5064608;28;20053;-78
2021/11/22 05:01:09;;;;;;;0.20;0.20;;;;;;;0.49;100.00;101585.56;5062981;28;20036;-79
2021/11/22 05:03:42;;;;;;;0.20;0.20;;;;;;;0.43;100.00;101589.03;5061778;28;20061;-80
2021/11/22 05:06:15;;;;;;;0.25;0.25;;;;;;;0.45;100.00;101586.97;5066944;28;20420;-80
2021/11/22 05:08:50;;;;;;;0.20;0.20;;;;;;;0.44;100.00;101598.72;5062769;28;20124;-79
2021/11/22 05:11:24;;;;;;;0.20;0.20;;;;;;;0.42;100.00;101602.59;5063640;28;20052;-78
2021/11/22 05:13:57;;;;;;;0.20;0.20;;;;;;;0.49;100.00;101603.50;5057739;28;20072;-79
2021/11/22 05:16:25;;;;;;;0.20;0.20;;;;;;;0.39;100.00;101601.13;5062207;28;20057;-79
2021/11/22 05:18:55;;;;;;;0.20;0.20;;;;;;;0.37;100.00;101605.00;5057535;28;20064;-78
2021/11/22 05:21:30;;;;;;;0.20;0.20;;;;;;;0.40;100.00;101594.75;5057223;28;20497;-79
2021/11/22 05:24:07;;;;;;;0.20;0.20;;;;;;;0.42;100.00;101600.75;5076966;28;20079;-79
2021/11/22 05:26:40;;;;;;;0.20;0.20;;;;;;;0.40;100.00;101608.16;5059680;28;20060;-79
2021/11/22 05:29:13;;;;;;;0.20;0.20;;;;;;;0.40;100.00;101610.84;5062044;28;20040;-78
2021/11/22 05:31:41;;;;;;;0.20;0.20;;;;;;;0.42;100.00;101618.69;5061748;28;20111;-79
2021/11/22 05:34:17;;;;;;;0.20;0.20;;;;;;;0.32;100.00;101616.31;5063230;28;20056;-78
2021/11/22 05:36:50;;;;;;;0.20;0.20;;;;;;;0.34;100.00;101641.03;5056297;28;20056;-80
2021/11/22 05:39:25;;;;;;;0.20;0.20;;;;;;;0.36;100.00;101624.78;5064396;28;20052;-79
2021/11/22 05:41:58;;;;;;;0.20;0.20;;;;;;;0.32;100.00;101624.34;5061074;28;21083;-80
2021/11/22 05:44:26;;;;;;;0.28;0.28;;;;;;;0.28;100.00;101633.75;5067125;28;20028;-79
2021/11/22 05:47:01;;;;;;;0.20;0.20;;;;;;;0.23;100.00;101628.13;5061340;28;20407;-78
2021/11/22 05:49:36;;;;;;;0.20;0.20;;;;;;;0.20;100.00;101631.19;5068328;28;20052;-79
2021/11/22 05:52:06;;;;;;;0.20;0.20;;;;;;;0.11;100.00;101625.09;5063570;28;20063;-79
2021/11/22 05:54:45;;;;;;;0.20;0.20;;;;;;;0.06;100.00;101636.38;5064196;28;20041;-79
2021/11/22 05:57:14;;;;;;;0.20;0.20;;;;;;;-0.02;100.00;101633.78;5066352;28;20467;-79
2021/11/22 05:59:47;;;;;;;0.15;0.15;;;;;;;-0.02;100.00;101645.31;5063892;28;20064;-80
2021/11/22 06:02:20;;;;;;;0.22;0.22;;;;;;;-0.11;100.00;101649.13;5066042;28;20055;-79
2021/11/22 06:04:54;;;;;;;0.20;0.20;;;;;;;-0.14;100.00;101652.16;5071672;28;20071;-80
2021/11/22 06:07:27;;;;;;;0.20;0.20;;;;;;;-0.20;100.00;101656.38;5060734;28;20045;-79
2021/11/22 06:10:01;;;;;;;0.20;0.20;;;;;;;-0.21;100.00;101659.25;5068505;28;20047;-79
2021/11/22 06:12:34;;;;;;;0.20;0.20;;;;;;;-0.25;100.00;101666.84;5067980;28;20041;-79
2021/11/22 06:15:04;;;;;;;0.20;0.20;;;;;;;-0.33;100.00;101666.91;5074149;28;20114;-80
2021/11/22 06:17:37;;;;;;;0.20;0.20;;;;;;;-0.40;100.00;101669.50;5066135;28;20056;-79
2021/11/22 06:20:07;;;;;;;0.20;0.20;;;;;;;-0.41;100.00;101673.16;5064253;28;20562;-79
2021/11/22 06:22:36;;;;;;;0.20;0.20;;;;;;;-0.42;100.00;101673.34;5068485;28;20091;-79
2021/11/22 06:25:11;;;;;;;0.20;0.20;;;;;;;-0.39;100.00;101675.66;5067087;28;20056;-79
2021/11/22 06:27:44;;;;;;;0.10;0.10;;;;;;;-0.46;100.00;101683.56;5067965;28;21222;-79
2021/11/22 06:30:18;;;;;;;0.20;0.20;;;;;;;-0.48;100.00;101684.75;5067796;28;20067;-79
2021/11/22 06:32:46;;;;;;;0.20;0.20;;;;;;;-0.52;100.00;101692.34;5064910;28;20468;-79
2021/11/22 06:35:20;;;;;;;0.20;0.20;;;;;;;-0.54;100.00;101699.69;5063354;28;20481;-79
2021/11/22 06:37:53;;;;;;;0.20;0.20;;;;;;;-0.57;100.00;101703.56;5068890;28;20052;-79
2021/11/22 06:40:27;;;;;;;0.20;0.20;;;;;;;-0.53;100.00;101707.53;5065229;28;20048;-79
2021/11/22 06:43:01;;;;;;;0.20;0.20;;;;;;;-0.59;100.00;101704.78;5062860;28;20524;-79
2021/11/22 06:45:34;;;;;;;0.30;0.30;;;;;;;-0.64;100.00;101707.97;5066770;28;20045;-79
2021/11/22 06:48:08;;;;;;;0.20;0.20;;;;;;;-0.62;100.00;101721.16;5065822;28;20067;-79
2021/11/22 06:50:41;;;;;;;0.20;0.20;;;;;;;-0.64;100.00;101721.34;5067043;28;20045;-79
2021/11/22 06:53:15;;;;;;;0.20;0.20;;;;;;;-0.67;100.00;101727.03;5067742;28;20057;-79
2021/11/22 06:55:50;;;;;;;0.28;0.28;;;;;;;-0.66;100.00;101731.41;5067621;28;20036;-79
2021/11/22 06:58:23;;;;;;;0.20;0.20;;;;;;;-0.69;100.00;101727.22;5066869;28;20044;-78
2021/11/22 07:00:56;;;;;;;0.20;0.20;;;;;;;-0.69;100.00;101737.94;5060597;28;21133;-79
2021/11/22 07:03:29;;;;;;;0.20;0.20;;;;;;;-0.67;100.00;101737.75;5064707;28;20056;-79
2021/11/22 07:06:04;;;;;;;0.20;0.20;;;;;;;-0.66;100.00;101742.09;5064692;28;20044;-79
2021/11/22 07:08:37;;;;;;;0.20;0.20;;;;;;;-0.65;100.00;101751.75;5070116;28;20048;-79
2021/11/22 07:11:12;;;;;;;0.20;0.20;;;;;;;-0.63;100.00;101757.75;5065526;28;20036;-79
2021/11/22 07:13:45;;;;;;;0.20;0.20;;;;;;;-0.67;100.00;101743.09;5067959;28;20056;-79
2021/11/22 07:16:16;;;;;;;0.20;0.20;;;;;;;-0.65;100.00;101754.41;5062426;28;20056;-79
2021/11/22 07:18:44;;;;;;;0.20;0.20;;;;;;;-0.66;100.00;101766.16;5067615;28;20048;-79
2021/11/22 07:21:17;;;;;;;0.10;0.10;;;;;;;-0.65;100.00;101757.09;5067202;28;20448;-79
2021/11/22 07:23:46;;;;;;;0.10;0.10;;;;;;;-0.64;100.00;101772.13;5063928;28;20413;-79
2021/11/22 07:26:21;;;;;;;0.20;0.20;;;;;;;-0.63;100.00;101772.97;5062644;28;20049;-79
2021/11/22 07:28:54;;;;;;;0.20;0.20;;;;;;;-0.59;100.00;101774.28;5068361;28;20052;-78
2021/11/22 07:31:27;;;;;;;0.20;0.20;;;;;;;-0.58;100.00;101781.28;5064698;28;20040;-79
2021/11/22 07:34:00;;;;;;;0.20;0.20;;;;;;;-0.53;100.00;101779.72;5067823;28;20051;-78
2021/11/22 07:36:34;;;;;;;0.20;0.20;;;;;;;-0.52;100.00;101783.25;5066813;28;20044;-79
2021/11/22 07:39:02;;;;;;;0.30;0.30;;;;;;;-0.50;100.00;101791.09;5062572;28;20051;-79
2021/11/22 07:41:38;;;;;;;0.20;0.20;;;;;;;-0.50;100.00;101793.78;5064389;28;20075;-79
2021/11/22 07:44:13;;;;;;;;;;;;;;;-0.49;100.00;101800.78;5066374;28;20056;-79
2021/11/22 07:46:46;;;;;;;0.20;0.20;;;;;;;-0.50;100.00;101794.59;5063883;28;19935;-79
2021/11/22 07:49:20;;;;;;;0.20;0.20;;;;;;;-0.48;100.00;101797.94;5063160;28;20053;-78
2021/11/22 07:51:53;;;;;;;0.25;0.25;;;;;;;-0.45;100.00;101815.47;5056345;28;20429;-80
2021/11/22 07:54:27;;;;;;;0.10;0.10;;;;;;;-0.46;100.00;101816.47;5060664;28;20064;-80
2021/11/22 07:57:01;;;;;;;0.20;0.20;;;;;;;-0.44;100.00;101817.97;5061228;28;20057;-78
2021/11/22 07:59:35;;;;;;;0.10;0.10;;;;;;;-0.40;100.00;101821.94;5073576;28;20070;-79
2021/11/22 08:02:08;;;;;;;0.20;0.20;;;;;;;-0.40;100.00;101821.09;5062347;28;20083;-79
2021/11/22 08:04:41;;;;;;;0.13;0.13;;;;;;;-0.39;100.00;101822.75;5064628;28;20052;-80
2021/11/22 08:07:17;;;;;;;0.20;0.20;;;;;;;-0.33;100.00;101824.75;5063831;28;20066;-80
2021/11/22 08:09:57;;;;;;;0.15;0.15;;;;;;;-0.30;100.00;101819.03;5061743;28;20055;-80
2021/11/22 08:12:33;;;;;;;0.20;0.20;;;;;;;-0.26;100.00;101823.00;5082466;28;20408;-80
2021/11/22 08:15:03;;;;;;;0.10;0.10;;;;;;;-0.20;100.00;101827.63;5083191;28;20051;-79
2021/11/22 08:17:39;;;;;;;0.20;0.20;;;;;;;-0.19;100.00;101825.78;5065210;28;20048;-81
2021/11/22 08:20:14;;;;;;;0.20;0.20;;;;;;;-0.19;100.00;101829.28;5064188;28;20197;-81
2021/11/22 08:22:48;;;;;;;0.20;0.20;;;;;;;-0.14;100.00;101831.41;5061092;28;20054;-80
2021/11/22 08:25:23;;;;;;;0.10;0.10;;;;;;;-0.03;100.00;101839.03;5063495;28;20033;-80
2021/11/22 08:27:58;;;;;;;0.20;0.20;;;;;;;-0.02;100.00;101837.19;5060658;28;20095;-81
2021/11/22 08:30:30;;;;;;;0.20;0.20;;;;;;;0.00;100.00;101845.88;5053071;28;20044;-81
2021/11/22 08:32:58;;;;;;;0.10;0.10;;;;;;;-0.05;100.00;101837.56;5073973;28;20056;-81
2021/11/22 08:35:32;;;;;;;0.20;0.20;;;;;;;0.07;100.00;101852.16;5058222;28;20055;-81
2021/11/22 08:38:06;;;;;;;0.20;0.20;;;;;;;-0.05;100.00;101843.72;5057295;28;20055;-81
2021/11/22 08:40:41;;;;;;;0.20;0.20;;;;;;;0.10;100.00;101857.16;5055421;28;20433;-80
2021/11/22 08:43:18;;;;;;;0.20;0.20;;;;;;;0.11;100.00;101853.47;5046804;28;20052;-81
2021/11/22 08:45:55;;;;;;;0.20;0.20;;;;;;;0.03;100.00;101842.84;5062670;28;20048;-80
2021/11/22 08:48:28;;;;;;;0.10;0.10;;;;;;;0.20;100.00;101856.06;5061228;28;20066;-79
2021/11/22 08:51:03;;;;;;;0.20;0.20;;;;;;;0.23;100.00;101866.41;5062013;28;20044;-79
2021/11/22 08:53:37;;;;;;;0.20;0.20;;;;;;;0.28;100.00;101859.50;5065960;28;20052;-79
2021/11/22 08:56:10;;;;;;;0.20;0.20;;;;;;;0.39;100.00;101868.94;5063684;28;20504;-79
2021/11/22 08:58:46;;;;;;;0.30;0.30;;;;;;;0.42;100.00;101865.88;5064970;28;20040;-78
2021/11/22 09:01:15;;;;;;;0.10;0.10;;;;;;;0.44;100.00;101849.63;5068749;28;20386;-79
2021/11/22 09:03:44;;;;;;;0.10;0.10;;;;;;;0.39;100.00;101841.28;5070083;28;20049;-80
2021/11/22 09:06:13;;;;;;;0.20;0.20;;;;;;;0.57;100.00;101868.56;5065572;28;20063;-80
2021/11/22 09:08:45;;;;;;;0.20;0.20;;;;;;;0.70;100.00;101869.78;5064548;28;20052;-82
2021/11/22 09:11:18;;;;;;;0.20;0.20;;;;;;;0.72;100.00;101875.78;5074210;28;20052;-83
2021/11/22 09:13:48;;;;;;;0.20;0.20;;;;;;;0.77;100.00;101879.56;5063207;28;20052;-84
2021/11/22 09:16:16;;;;;;;0.20;0.20;;;;;;;0.77;100.00;101887.59;5065157;28;20681;-83
2021/11/22 09:18:49;;;;;;;0.20;0.20;;;;;;;0.88;100.00;101890.84;5080891;28;20057;-83
2021/11/22 09:21:23;;;;;;;0.20;0.20;;;;;;;0.94;100.00;101882.03;5057713;28;20064;-83
2021/11/22 09:23:57;;;;;;;0.20;0.20;;;;;;;0.93;100.00;101889.28;5077170;28;20504;-82
2021/11/22 09:26:25;;;;;;;0.20;0.20;;;;;;;0.96;100.00;101885.38;5062665;28;20044;-82
2021/11/22 09:28:55;;;;;;;0.10;0.10;;;;;;;1.02;100.00;101890.84;5058718;28;20041;-83
2021/11/22 09:31:28;;;;;;;0.20;0.20;;;;;;;0.98;100.00;101886.88;5064524;28;20075;-83
2021/11/22 09:34:01;;;;;;;0.20;0.20;;;;;;;1.06;100.00;101891.28;5059492;28;20409;-83
2021/11/22 09:36:30;;;;;;;0.20;0.20;;;;;;;1.08;100.00;101889.25;5057888;28;20048;-82
2021/11/22 09:39:03;;;;;;;0.20;0.20;;;;;;;1.17;100.00;101893.50;5063645;28;20053;-82
2021/11/22 09:41:37;;;;;;;0.15;0.15;;;;;;;1.25;100.00;101889.88;5063765;28;20041;-82
2021/11/22 09:44:06;;;;;;;0.20;0.20;;;;;;;1.31;100.00;101893.66;5064534;28;20047;-81
2021/11/22 09:46:39;;;;;;;0.20;0.20;;;;;;;1.43;100.00;101902.06;5059830;28;20044;-82
2021/11/22 09:49:13;;;;;;;0.20;0.20;;;;;;;1.47;100.00;101896.13;5059748;28;20049;-81
2021/11/22 09:51:42;;;;;;;0.28;0.28;;;;;;;1.52;100.00;101896.38;5064358;28;20052;-82
2021/11/22 09:54:15;;;;;;;0.20;0.20;;;;;;;1.58;100.00;101892.09;5058579;28;20047;-82
2021/11/22 09:56:52;;;;;;;0.20;0.20;;;;;;;1.59;100.00;101891.09;5060860;28;20056;-83
2021/11/22 09:59:26;;;;;;;0.20;0.20;;;;;;;1.76;100.00;101904.28;5062149;28;20048;-82
2021/11/22 10:02:00;;;;;;;0.20;0.20;;;;;;;1.76;100.00;101896.22;5059903;28;20075;-81
2021/11/22 10:04:34;;;;;;;0.20;0.20;;;;;;;1.78;100.00;101905.75;5066393;28;20045;-81
2021/11/22 10:07:08;;;;;;;0.20;0.20;;;;;;;1.81;100.00;101904.50;5063873;28;20408;-82
2021/11/22 10:09:44;;;;;;;0.20;0.20;;;;;;;1.86;100.00;101904.78;5064141;28;20071;-82
2021/11/22 10:12:22;;;;;;;0.20;0.20;;;;;;;1.86;100.00;101900.25;5062936;28;20076;-81
2021/11/22 10:14:54;;;;;;;0.20;0.20;;;;;;;2.10;100.00;101902.72;5065557;28;20063;-81
2021/11/22 10:17:33;;;;;;;0.20;0.20;;;;;;;2.07;100.00;101920.03;5067791;28;20416;-81
2021/11/22 10:20:18;;;;;;;0.20;0.20;;;;;;;2.28;100.00;101918.38;5066176;28;20056;-81
2021/11/22 10:22:53;;;;;;;0.20;0.20;;;;;;;2.30;100.00;101919.84;5067601;28;20067;-81
2021/11/22 10:25:30;;;;;;;0.20;0.20;;;;;;;2.48;100.00;101924.72;5065325;28;20417;-81
2021/11/22 10:28:07;;;;;;;0.20;0.20;;;;;;;2.58;100.00;101918.19;5067053;28;20049;-80
2021/11/22 10:30:40;;;;;;;0.10;0.10;;;;;;;2.60;100.00;101921.53;5055557;28;20052;-81
2021/11/22 10:33:15;;;;;;;0.20;0.20;;;;;;;2.81;100.00;101921.44;5064786;28;20047;-81
2021/11/22 10:35:49;;;;;;;0.20;0.20;;;;;;;2.97;100.00;101923.00;5059193;28;20049;-81
2021/11/22 10:38:25;;;;;;;0.20;0.20;;;;;;;3.04;100.00;101928.41;5061460;28;20056;-82
2021/11/22 10:41:00;;;;;;;0.20;0.20;;;;;;;3.01;100.00;101935.03;5059414;28;20052;-81
2021/11/22 10:43:35;;;;;;;0.20;0.20;;;;;;;2.97;100.00;101938.28;5059493;28;20041;-81
2021/11/22 10:46:12;;;;;;;0.20;0.20;;;;;;;2.94;100.00;101927.94;5061490;28;20053;-82
2021/11/22 10:48:46;;;;;;;0.20;0.20;;;;;;;2.99;100.00;101934.38;5066455;28;20044;-82
2021/11/22 10:51:21;;;;;;;0.30;0.30;;;;;;;3.10;100.00;101938.38;5058538;28;20048;-82
2021/11/22 10:53:57;;;;;;;0.20;0.20;;;;;;;3.15;100.00;101944.00;5062663;28;20429;-82
2021/11/22 10:56:37;;;;;;;0.20;0.20;;;;;;;3.16;100.00;101940.28;5060012;28;20048;-82
2021/11/22 10:59:13;;;;;;;0.20;0.20;;;;;;;3.16;100.00;101942.13;5067538;28;20063;-81
2021/11/22 11:01:45;;;;;;;0.13;0.13;;;;;;;3.26;100.00;101942.59;5066414;28;20531;-82
2021/11/22 11:04:21;;;;;;;0.30;0.30;;;;;;;3.28;100.00;101942.41;5067415;28;20053;-81
2021/11/22 11:06:58;;;;;;;0.28;0.28;;;;;;;3.28;100.00;101937.00;5057236;28;20745;-82
2021/11/22 11:09:32;;;;;;;0.20;0.20;;;;;;;3.26;100.00;101939.91;5071330;28;20052;-82
2021/11/22 11:12:11;;;;;;;0.20;0.20;;;;;;;3.32;100.00;101940.97;5061995;28;20417;-81
2021/11/22 11:14:41;;;;;;;0.20;0.20;;;;;;;3.46;100.00;101939.16;5055886;28;20333;-81
2021/11/22 11:17:22;;;;;;;0.10;0.10;;;;;;;3.52;100.00;101931.13;5060646;28;20128;-81
2021/11/22 11:19:53;;;;;;;0.20;0.20;;;;;;;3.57;100.00;101938.56;5063213;28;20052;-81
2021/11/22 11:22:29;;;;;;;0.20;0.20;;;;;;;3.62;100.00;101946.88;5057086;28;20402;-81
2021/11/22 11:25:03;;;;;;;0.20;0.20;;;;;;;3.57;100.00;101935.88;5061044;28;20501;-82
2021/11/22 11:27:33;;;;;;;0.20;0.20;;;;;;;3.63;100.00;101940.44;5062994;28;20052;-82
2021/11/22 11:30:08;;;;;;;0.20;0.20;;;;;;;3.55;100.00;101940.66;5057291;28;20048;-81
2021/11/22 11:32:43;;;;;;;0.20;0.20;;;;;;;3.59;100.00;101939.22;5065643;28;20052;-81
2021/11/22 11:35:18;;;;;;;0.20;0.20;;;;;;;3.66;100.00;101931.13;5057204;28;20029;-81
2021/11/22 11:38:08;;;;;;;0.20;0.20;;;;;;;3.62;100.00;101933.44;5063303;28;20053;-80
2021/11/22 11:40:57;;;;;;;0.20;0.20;;;;;;;3.59;100.00;101939.22;5067255;28;20056;-81
2021/11/22 11:43:48;;;;;;;0.25;0.25;;;;;;;3.70;100.00;101944.00;5064640;28;20037;-82
2021/11/22 11:46:36;;;;;;;0.20;0.20;;;;;;;3.73;100.00;101945.47;5062240;28;20424;-80
2021/11/22 11:49:13;;;;;;;0.20;0.20;;;;;;;3.74;100.00;101941.72;5061317;28;20059;-81
2021/11/22 11:51:48;;;;;;;0.22;0.22;;;;;;;3.72;100.00;101941.94;5057648;28;20409;-81
2021/11/22 11:54:23;;;;;;;0.20;0.20;;;;;;;3.66;100.00;101944.59;5054178;28;20063;-81